sensor_id;sensor_type;location;lat;lon;timestamp;temperature;humidity
67186;HTU21D;54116;53.518;49.398;2022-10-17T00:01:12;-0.40;112.03
67186;HTU21D;54116;53.518;49.398;2022-10-17T00:03:44;-0.38;112.23
67186;HTU21D;54116;53.518;49.398;2022-10-17T00:06:15;-0.35;112.39
67186;HTU21D;54116;53.518;49.398;2022-10-17T00:08:46;-0.28;112.55
67186;HTU21D;54116;53.518;49.398;2022-10-17T00:11:20;-0.23;112.67
67186;HTU21D;54116;53.518;49.398;2022-10-17T00:13:53;-0.19;112.75
67186;HTU21D;54116;53.518;49.398;2022-10-17T00:16:30;-0.13;112.87
67186;HTU21D;54116;53.518;49.398;2022-10-17T00:19:05;-0.11;112.85
67186;HTU21D;54116;53.518;49.398;2022-10-17T00:21:36;-0.20;112.78
67186;HTU21D;54116;53.518;49.398;2022-10-17T00:24:08;-0.16;112.88
67186;HTU21D;54116;53.518;49.398;2022-10-17T00:26:39;-0.09;113.07
67186;HTU21D;54116;53.518;49.398;2022-10-17T00:29:10;-0.01;113.16
67186;HTU21D;54116;53.518;49.398;2022-10-17T00:31:42;-0.01;113.13
67186;HTU21D;54116;53.518;49.398;2022-10-17T00:34:13;-0.07;113.03
67186;HTU21D;54116;53.518;49.398;2022-10-17T00:36:45;-0.05;113.13
67186;HTU21D;54116;53.518;49.398;2022-10-17T00:39:16;0.06;113.27
67186;HTU21D;54116;53.518;49.398;2022-10-17T00:41:47;0.14;113.38
67186;HTU21D;54116;53.518;49.398;2022-10-17T00:47:05;0.16;113.43
67186;HTU21D;54116;53.518;49.398;2022-10-17T00:49:39;0.14;113.34
67186;HTU21D;54116;53.518;49.398;2022-10-17T00:52:14;0.01;113.19
67186;HTU21D;54116;53.518;49.398;2022-10-17T00:57:40;-0.20;112.88
67186;HTU21D;54116;53.518;49.398;2022-10-17T01:00:14;-0.25;112.90
67186;HTU21D;54116;53.518;49.398;2022-10-17T01:02:47;-0.32;112.68
67186;HTU21D;54116;53.518;49.398;2022-10-17T01:05:18;-0.37;112.71
67186;HTU21D;54116;53.518;49.398;2022-10-17T01:07:52;-0.41;112.63
67186;HTU21D;54116;53.518;49.398;2022-10-17T01:10:30;-0.44;112.71
67186;HTU21D;54116;53.518;49.398;2022-10-17T01:13:21;-0.47;112.64
67186;HTU21D;54116;53.518;49.398;2022-10-17T01:21:52;-0.49;112.70
67186;HTU21D;54116;53.518;49.398;2022-10-17T01:24:47;-0.49;112.77
67186;HTU21D;54116;53.518;49.398;2022-10-17T01:27:46;-0.43;112.79
67186;HTU21D;54116;53.518;49.398;2022-10-17T01:33:11;-0.45;112.84
67186;HTU21D;54116;53.518;49.398;2022-10-17T01:35:53;-0.45;112.89
67186;HTU21D;54116;53.518;49.398;2022-10-17T01:38:33;-0.53;112.66
67186;HTU21D;54116;53.518;49.398;2022-10-17T01:43:58;-0.60;112.46
67186;HTU21D;54116;53.518;49.398;2022-10-17T01:46:38;-0.64;112.45
67186;HTU21D;54116;53.518;49.398;2022-10-17T01:49:12;-0.60;112.70
67186;HTU21D;54116;53.518;49.398;2022-10-17T01:51:48;-0.46;112.98
67186;HTU21D;54116;53.518;49.398;2022-10-17T01:54:28;-0.47;112.99
67186;HTU21D;54116;53.518;49.398;2022-10-17T01:57:04;-0.57;112.75
67186;HTU21D;54116;53.518;49.398;2022-10-17T01:59:41;-0.59;112.81
67186;HTU21D;54116;53.518;49.398;2022-10-17T02:02:14;-0.60;112.77
67186;HTU21D;54116;53.518;49.398;2022-10-17T02:04:49;-0.64;112.71
67186;HTU21D;54116;53.518;49.398;2022-10-17T02:07:21;-0.69;112.71
67186;HTU21D;54116;53.518;49.398;2022-10-17T02:09:53;-0.71;112.70
67186;HTU21D;54116;53.518;49.398;2022-10-17T02:12:44;-0.72;112.64
67186;HTU21D;54116;53.518;49.398;2022-10-17T02:18:46;-0.79;112.60
67186;HTU21D;54116;53.518;49.398;2022-10-17T02:21:45;-0.76;112.65
67186;HTU21D;54116;53.518;49.398;2022-10-17T02:27:19;-0.61;112.87
67186;HTU21D;54116;53.518;49.398;2022-10-17T02:30:31;-0.57;112.89
67186;HTU21D;54116;53.518;49.398;2022-10-17T02:33:41;-0.44;113.08
67186;HTU21D;54116;53.518;49.398;2022-10-17T02:36:18;-0.27;113.27
67186;HTU21D;54116;53.518;49.398;2022-10-17T02:38:52;-0.14;113.29
67186;HTU21D;54116;53.518;49.398;2022-10-17T02:41:25;-0.12;113.26
67186;HTU21D;54116;53.518;49.398;2022-10-17T02:43:57;-0.10;113.20
67186;HTU21D;54116;53.518;49.398;2022-10-17T02:46:29;-0.05;113.29
67186;HTU21D;54116;53.518;49.398;2022-10-17T02:49:24;-0.00;112.49
67186;HTU21D;54116;53.518;49.398;2022-10-17T02:55:18;0.23;112.91
67186;HTU21D;54116;53.518;49.398;2022-10-17T02:57:53;0.29;112.71
67186;HTU21D;54116;53.518;49.398;2022-10-17T03:00:26;0.28;112.58
67186;HTU21D;54116;53.518;49.398;2022-10-17T03:02:58;0.32;112.55
67186;HTU21D;54116;53.518;49.398;2022-10-17T03:05:30;0.35;112.49
67186;HTU21D;54116;53.518;49.398;2022-10-17T03:08:02;0.38;112.61
67186;HTU21D;54116;53.518;49.398;2022-10-17T03:10:33;0.57;112.90
67186;HTU21D;54116;53.518;49.398;2022-10-17T03:13:08;0.63;112.83
67186;HTU21D;54116;53.518;49.398;2022-10-17T03:15:39;0.75;112.87
67186;HTU21D;54116;53.518;49.398;2022-10-17T03:18:11;0.93;113.06
67186;HTU21D;54116;53.518;49.398;2022-10-17T03:20:42;1.02;112.97
67186;HTU21D;54116;53.518;49.398;2022-10-17T03:23:13;1.17;113.13
67186;HTU21D;54116;53.518;49.398;2022-10-17T03:25:47;1.35;113.13
67186;HTU21D;54116;53.518;49.398;2022-10-17T03:28:19;1.55;113.25
67186;HTU21D;54116;53.518;49.398;2022-10-17T03:30:50;1.76;113.35
67186;HTU21D;54116;53.518;49.398;2022-10-17T03:33:21;1.90;113.26
67186;HTU21D;54116;53.518;49.398;2022-10-17T03:35:53;1.90;112.99
67186;HTU21D;54116;53.518;49.398;2022-10-17T03:38:24;1.76;112.62
67186;HTU21D;54116;53.518;49.398;2022-10-17T03:40:55;1.76;112.55
67186;HTU21D;54116;53.518;49.398;2022-10-17T03:43:27;1.76;112.36
67186;HTU21D;54116;53.518;49.398;2022-10-17T03:46:00;1.71;112.19
67186;HTU21D;54116;53.518;49.398;2022-10-17T03:48:32;1.69;112.12
67186;HTU21D;54116;53.518;49.398;2022-10-17T03:51:05;1.72;112.35
67186;HTU21D;54116;53.518;49.398;2022-10-17T03:53:37;1.80;112.39
67186;HTU21D;54116;53.518;49.398;2022-10-17T03:56:13;1.78;112.14
67186;HTU21D;54116;53.518;49.398;2022-10-17T03:58:45;1.68;111.84
67186;HTU21D;54116;53.518;49.398;2022-10-17T04:01:18;1.65;111.86
67186;HTU21D;54116;53.518;49.398;2022-10-17T04:03:51;1.61;111.60
67186;HTU21D;54116;53.518;49.398;2022-10-17T04:06:23;1.54;111.29
67186;HTU21D;54116;53.518;49.398;2022-10-17T04:08:54;1.47;111.19
67186;HTU21D;54116;53.518;49.398;2022-10-17T04:11:25;1.49;111.32
67186;HTU21D;54116;53.518;49.398;2022-10-17T04:13:57;1.60;111.45
67186;HTU21D;54116;53.518;49.398;2022-10-17T04:16:29;3.02;112.80
67186;HTU21D;54116;53.518;49.398;2022-10-17T04:19:01;3.84;104.34
67186;HTU21D;54116;53.518;49.398;2022-10-17T04:21:32;3.54;102.51
67186;HTU21D;54116;53.518;49.398;2022-10-17T04:24:04;3.21;103.89
67186;HTU21D;54116;53.518;49.398;2022-10-17T04:26:35;2.99;105.44
67186;HTU21D;54116;53.518;49.398;2022-10-17T04:29:07;2.91;107.40
67186;HTU21D;54116;53.518;49.398;2022-10-17T04:31:38;3.03;108.76
67186;HTU21D;54116;53.518;49.398;2022-10-17T04:34:09;3.09;108.33
67186;HTU21D;54116;53.518;49.398;2022-10-17T04:36:41;3.15;108.56
67186;HTU21D;54116;53.518;49.398;2022-10-17T04:39:15;3.19;108.53
67186;HTU21D;54116;53.518;49.398;2022-10-17T04:41:46;3.32;108.88
67186;HTU21D;54116;53.518;49.398;2022-10-17T04:44:18;3.48;109.17
67186;HTU21D;54116;53.518;49.398;2022-10-17T04:46:51;3.73;109.36
67186;HTU21D;54116;53.518;49.398;2022-10-17T04:49:22;3.95;109.17
67186;HTU21D;54116;53.518;49.398;2022-10-17T04:51:54;4.19;108.51
67186;HTU21D;54116;53.518;49.398;2022-10-17T04:54:25;4.52;108.13
67186;HTU21D;54116;53.518;49.398;2022-10-17T04:56:56;4.83;106.88
67186;HTU21D;54116;53.518;49.398;2022-10-17T04:59:28;5.53;105.29
67186;HTU21D;54116;53.518;49.398;2022-10-17T05:01:59;6.58;100.58
67186;HTU21D;54116;53.518;49.398;2022-10-17T05:04:31;8.46;92.25
67186;HTU21D;54116;53.518;49.398;2022-10-17T05:07:02;10.70;79.72
67186;HTU21D;54116;53.518;49.398;2022-10-17T05:09:34;12.51;71.52
67186;HTU21D;54116;53.518;49.398;2022-10-17T05:12:05;13.06;67.46
67186;HTU21D;54116;53.518;49.398;2022-10-17T05:14:36;13.45;66.94
67186;HTU21D;54116;53.518;49.398;2022-10-17T05:17:08;13.02;66.96
67186;HTU21D;54116;53.518;49.398;2022-10-17T05:19:39;11.23;73.81
67186;HTU21D;54116;53.518;49.398;2022-10-17T05:22:10;9.84;80.65
67186;HTU21D;54116;53.518;49.398;2022-10-17T05:24:42;9.00;84.60
67186;HTU21D;54116;53.518;49.398;2022-10-17T05:27:13;8.66;87.70
67186;HTU21D;54116;53.518;49.398;2022-10-17T05:29:45;8.38;88.38
67186;HTU21D;54116;53.518;49.398;2022-10-17T05:32:16;8.24;90.01
67186;HTU21D;54116;53.518;49.398;2022-10-17T05:34:51;8.15;90.28
67186;HTU21D;54116;53.518;49.398;2022-10-17T05:37:22;8.07;89.79
67186;HTU21D;54116;53.518;49.398;2022-10-17T05:39:54;8.12;90.94
67186;HTU21D;54116;53.518;49.398;2022-10-17T05:42:25;8.21;91.02
67186;HTU21D;54116;53.518;49.398;2022-10-17T05:44:56;8.26;90.75
67186;HTU21D;54116;53.518;49.398;2022-10-17T05:47:28;8.27;90.03
67186;HTU21D;54116;53.518;49.398;2022-10-17T05:49:59;8.36;91.56
67186;HTU21D;54116;53.518;49.398;2022-10-17T05:52:31;8.63;90.78
67186;HTU21D;54116;53.518;49.398;2022-10-17T05:55:04;8.81;91.21
67186;HTU21D;54116;53.518;49.398;2022-10-17T05:57:35;8.98;88.86
67186;HTU21D;54116;53.518;49.398;2022-10-17T06:00:07;9.17;89.39
67186;HTU21D;54116;53.518;49.398;2022-10-17T06:02:39;9.46;88.02
67186;HTU21D;54116;53.518;49.398;2022-10-17T06:05:11;9.53;87.27
67186;HTU21D;54116;53.518;49.398;2022-10-17T06:07:43;9.72;85.93
67186;HTU21D;54116;53.518;49.398;2022-10-17T06:10:15;9.51;85.73
67186;HTU21D;54116;53.518;49.398;2022-10-17T06:12:47;9.12;86.90
67186;HTU21D;54116;53.518;49.398;2022-10-17T06:15:18;9.00;87.44
67186;HTU21D;54116;53.518;49.398;2022-10-17T06:17:49;9.02;88.12
67186;HTU21D;54116;53.518;49.398;2022-10-17T06:20:21;9.02;89.72
67186;HTU21D;54116;53.518;49.398;2022-10-17T06:22:52;9.05;87.14
67186;HTU21D;54116;53.518;49.398;2022-10-17T06:25:23;9.08;87.55
67186;HTU21D;54116;53.518;49.398;2022-10-17T06:27:55;9.17;88.20
67186;HTU21D;54116;53.518;49.398;2022-10-17T06:30:26;9.32;85.67
67186;HTU21D;54116;53.518;49.398;2022-10-17T06:33:01;9.37;84.97
67186;HTU21D;54116;53.518;49.398;2022-10-17T06:35:32;9.36;86.20
67186;HTU21D;54116;53.518;49.398;2022-10-17T06:38:04;9.34;86.12
67186;HTU21D;54116;53.518;49.398;2022-10-17T06:40:35;9.26;85.01
67186;HTU21D;54116;53.518;49.398;2022-10-17T06:43:06;9.33;84.78
67186;HTU21D;54116;53.518;49.398;2022-10-17T06:45:38;9.45;85.61
67186;HTU21D;54116;53.518;49.398;2022-10-17T06:48:10;9.55;84.78
67186;HTU21D;54116;53.518;49.398;2022-10-17T06:50:41;9.62;84.40
67186;HTU21D;54116;53.518;49.398;2022-10-17T06:53:13;9.63;84.03
67186;HTU21D;54116;53.518;49.398;2022-10-17T06:55:44;9.66;83.62
67186;HTU21D;54116;53.518;49.398;2022-10-17T06:58:15;9.81;82.82
67186;HTU21D;54116;53.518;49.398;2022-10-17T07:00:47;9.86;82.08
67186;HTU21D;54116;53.518;49.398;2022-10-17T07:03:21;9.95;82.47
67186;HTU21D;54116;53.518;49.398;2022-10-17T07:05:53;9.85;82.01
67186;HTU21D;54116;53.518;49.398;2022-10-17T07:08:25;9.78;82.51
67186;HTU21D;54116;53.518;49.398;2022-10-17T07:10:57;9.98;81.29
67186;HTU21D;54116;53.518;49.398;2022-10-17T07:13:28;10.18;81.36
67186;HTU21D;54116;53.518;49.398;2022-10-17T07:15:59;10.22;77.49
67186;HTU21D;54116;53.518;49.398;2022-10-17T07:18:31;10.13;77.16
67186;HTU21D;54116;53.518;49.398;2022-10-17T07:21:04;10.11;78.21
67186;HTU21D;54116;53.518;49.398;2022-10-17T07:23:35;10.11;77.69
67186;HTU21D;54116;53.518;49.398;2022-10-17T07:26:10;10.09;77.80
67186;HTU21D;54116;53.518;49.398;2022-10-17T07:28:43;10.07;78.11
67186;HTU21D;54116;53.518;49.398;2022-10-17T07:31:17;10.14;78.14
67186;HTU21D;54116;53.518;49.398;2022-10-17T07:33:49;10.24;77.02
67186;HTU21D;54116;53.518;49.398;2022-10-17T07:36:21;10.11;75.54
67186;HTU21D;54116;53.518;49.398;2022-10-17T07:38:55;10.01;76.07
67186;HTU21D;54116;53.518;49.398;2022-10-17T07:41:26;10.00;76.20
67186;HTU21D;54116;53.518;49.398;2022-10-17T07:43:58;10.05;76.78
67186;HTU21D;54116;53.518;49.398;2022-10-17T07:46:29;10.09;75.55
67186;HTU21D;54116;53.518;49.398;2022-10-17T07:49:01;10.07;74.51
67186;HTU21D;54116;53.518;49.398;2022-10-17T07:51:33;10.04;75.99
67186;HTU21D;54116;53.518;49.398;2022-10-17T07:54:05;10.05;75.94
67186;HTU21D;54116;53.518;49.398;2022-10-17T07:56:36;10.05;76.76
67186;HTU21D;54116;53.518;49.398;2022-10-17T07:59:08;10.12;76.65
67186;HTU21D;54116;53.518;49.398;2022-10-17T08:01:39;10.15;72.09
67186;HTU21D;54116;53.518;49.398;2022-10-17T08:04:11;10.15;75.73
67186;HTU21D;54116;53.518;49.398;2022-10-17T08:06:46;10.11;73.08
67186;HTU21D;54116;53.518;49.398;2022-10-17T08:09:17;10.12;72.04
67186;HTU21D;54116;53.518;49.398;2022-10-17T08:11:49;10.03;72.07
67186;HTU21D;54116;53.518;49.398;2022-10-17T08:14:20;10.00;72.21
67186;HTU21D;54116;53.518;49.398;2022-10-17T08:16:53;10.07;72.41
67186;HTU21D;54116;53.518;49.398;2022-10-17T08:19:25;10.15;71.99
67186;HTU21D;54116;53.518;49.398;2022-10-17T08:21:56;10.15;70.47
67186;HTU21D;54116;53.518;49.398;2022-10-17T08:24:32;10.12;71.52
67186;HTU21D;54116;53.518;49.398;2022-10-17T08:27:03;10.16;69.22
67186;HTU21D;54116;53.518;49.398;2022-10-17T08:29:41;10.11;68.94
67186;HTU21D;54116;53.518;49.398;2022-10-17T08:32:13;10.09;68.07
67186;HTU21D;54116;53.518;49.398;2022-10-17T08:34:48;10.06;67.94
67186;HTU21D;54116;53.518;49.398;2022-10-17T08:37:20;10.14;69.49
67186;HTU21D;54116;53.518;49.398;2022-10-17T08:39:51;10.19;69.65
67186;HTU21D;54116;53.518;49.398;2022-10-17T08:42:53;10.28;69.27
67186;HTU21D;54116;53.518;49.398;2022-10-17T08:46:01;10.27;70.48
67186;HTU21D;54116;53.518;49.398;2022-10-17T08:48:39;10.33;70.00
67186;HTU21D;54116;53.518;49.398;2022-10-17T08:51:28;10.29;68.01
67186;HTU21D;54116;53.518;49.398;2022-10-17T08:54:22;10.38;68.65
67186;HTU21D;54116;53.518;49.398;2022-10-17T08:56:54;10.43;68.95
67186;HTU21D;54116;53.518;49.398;2022-10-17T08:59:28;10.45;67.93
67186;HTU21D;54116;53.518;49.398;2022-10-17T09:02:29;10.40;67.32
67186;HTU21D;54116;53.518;49.398;2022-10-17T09:11:13;10.39;68.04
67186;HTU21D;54116;53.518;49.398;2022-10-17T09:19:43;10.50;66.75
67186;HTU21D;54116;53.518;49.398;2022-10-17T09:22:21;10.51;67.20
67186;HTU21D;54116;53.518;49.398;2022-10-17T09:25:03;10.50;66.98
67186;HTU21D;54116;53.518;49.398;2022-10-17T09:31:04;10.56;66.14
67186;HTU21D;54116;53.518;49.398;2022-10-17T09:33:42;10.56;66.87
67186;HTU21D;54116;53.518;49.398;2022-10-17T09:39:01;10.44;66.02
67186;HTU21D;54116;53.518;49.398;2022-10-17T09:41:38;10.52;66.11
67186;HTU21D;54116;53.518;49.398;2022-10-17T09:44:24;10.53;66.44
67186;HTU21D;54116;53.518;49.398;2022-10-17T09:49:51;10.54;66.46
67186;HTU21D;54116;53.518;49.398;2022-10-17T09:52:42;10.65;65.57
67186;HTU21D;54116;53.518;49.398;2022-10-17T09:55:39;10.74;64.69
67186;HTU21D;54116;53.518;49.398;2022-10-17T09:58:12;10.85;64.36
67186;HTU21D;54116;53.518;49.398;2022-10-17T10:00:47;10.79;61.14
67186;HTU21D;54116;53.518;49.398;2022-10-17T10:03:23;10.81;63.97
67186;HTU21D;54116;53.518;49.398;2022-10-17T10:08:37;10.88;63.75
67186;HTU21D;54116;53.518;49.398;2022-10-17T10:11:24;10.78;63.59
67186;HTU21D;54116;53.518;49.398;2022-10-17T10:14:10;10.85;62.25
67186;HTU21D;54116;53.518;49.398;2022-10-17T10:16:42;10.84;61.05
67186;HTU21D;54116;53.518;49.398;2022-10-17T10:22:04;10.81;60.22
67186;HTU21D;54116;53.518;49.398;2022-10-17T10:24:36;10.78;61.59
67186;HTU21D;54116;53.518;49.398;2022-10-17T10:27:13;10.75;61.21
67186;HTU21D;54116;53.518;49.398;2022-10-17T10:29:49;10.75;61.01
67186;HTU21D;54116;53.518;49.398;2022-10-17T10:32:32;10.73;59.77
67186;HTU21D;54116;53.518;49.398;2022-10-17T10:37:54;10.82;60.02
67186;HTU21D;54116;53.518;49.398;2022-10-17T10:40:30;10.88;60.76
67186;HTU21D;54116;53.518;49.398;2022-10-17T10:43:04;10.93;60.42
67186;HTU21D;54116;53.518;49.398;2022-10-17T10:48:33;10.77;60.54
67186;HTU21D;54116;53.518;49.398;2022-10-17T10:53:54;10.67;61.90
67186;HTU21D;54116;53.518;49.398;2022-10-17T10:56:39;10.65;62.51
67186;HTU21D;54116;53.518;49.398;2022-10-17T10:59:59;10.66;61.74
67186;HTU21D;54116;53.518;49.398;2022-10-17T11:05:26;10.65;61.09
67186;HTU21D;54116;53.518;49.398;2022-10-17T11:07:50;10.74;62.20
67186;HTU21D;54116;53.518;49.398;2022-10-17T11:13:22;10.79;62.10
67186;HTU21D;54116;53.518;49.398;2022-10-17T11:16:34;10.72;62.48
67186;HTU21D;54116;53.518;49.398;2022-10-17T11:19:26;10.71;61.99
67186;HTU21D;54116;53.518;49.398;2022-10-17T11:27:40;10.88;61.69
67186;HTU21D;54116;53.518;49.398;2022-10-17T11:30:14;10.85;63.49
67186;HTU21D;54116;53.518;49.398;2022-10-17T11:33:04;10.89;61.72
67186;HTU21D;54116;53.518;49.398;2022-10-17T11:35:38;10.89;62.39
67186;HTU21D;54116;53.518;49.398;2022-10-17T11:40:49;10.92;63.18
67186;HTU21D;54116;53.518;49.398;2022-10-17T11:43:39;11.00;62.72
67186;HTU21D;54116;53.518;49.398;2022-10-17T11:46:25;10.89;62.38
67186;HTU21D;54116;53.518;49.398;2022-10-17T11:49:05;10.74;64.00
67186;HTU21D;54116;53.518;49.398;2022-10-17T11:51:48;10.78;63.50
67186;HTU21D;54116;53.518;49.398;2022-10-17T11:54:36;10.72;64.13
67186;HTU21D;54116;53.518;49.398;2022-10-17T11:57:34;10.71;64.71
67186;HTU21D;54116;53.518;49.398;2022-10-17T12:05:51;10.66;64.41
67186;HTU21D;54116;53.518;49.398;2022-10-17T12:17:30;10.51;64.50
67186;HTU21D;54116;53.518;49.398;2022-10-17T12:25:55;10.31;65.13
67186;HTU21D;54116;53.518;49.398;2022-10-17T12:28:45;10.27;65.51
67186;HTU21D;54116;53.518;49.398;2022-10-17T12:33:57;9.99;65.21
67186;HTU21D;54116;53.518;49.398;2022-10-17T12:49:43;9.49;67.25
67186;HTU21D;54116;53.518;49.398;2022-10-17T12:55:16;9.32;68.21
67186;HTU21D;54116;53.518;49.398;2022-10-17T12:58:02;9.23;68.39
67186;HTU21D;54116;53.518;49.398;2022-10-17T13:03:21;9.10;68.65
67186;HTU21D;54116;53.518;49.398;2022-10-17T13:05:59;9.05;68.39
67186;HTU21D;54116;53.518;49.398;2022-10-17T13:08:34;8.95;69.36
67186;HTU21D;54116;53.518;49.398;2022-10-17T13:11:08;8.82;70.58
67186;HTU21D;54116;53.518;49.398;2022-10-17T13:13:44;8.68;70.68
67186;HTU21D;54116;53.518;49.398;2022-10-17T13:19:02;8.60;72.09
67186;HTU21D;54116;53.518;49.398;2022-10-17T13:21:34;8.51;72.46
67186;HTU21D;54116;53.518;49.398;2022-10-17T13:24:20;8.42;72.35
67186;HTU21D;54116;53.518;49.398;2022-10-17T13:26:58;8.38;72.04
67186;HTU21D;54116;53.518;49.398;2022-10-17T13:29:31;8.28;73.63
67186;HTU21D;54116;53.518;49.398;2022-10-17T13:32:04;8.16;73.56
67186;HTU21D;54116;53.518;49.398;2022-10-17T13:34:39;8.11;74.11
67186;HTU21D;54116;53.518;49.398;2022-10-17T13:37:14;8.06;74.17
67186;HTU21D;54116;53.518;49.398;2022-10-17T13:39:46;8.03;75.25
67186;HTU21D;54116;53.518;49.398;2022-10-17T13:42:26;7.94;75.48
67186;HTU21D;54116;53.518;49.398;2022-10-17T13:44:58;7.88;75.95
67186;HTU21D;54116;53.518;49.398;2022-10-17T13:47:34;7.84;75.95
67186;HTU21D;54116;53.518;49.398;2022-10-17T13:50:07;7.75;76.66
67186;HTU21D;54116;53.518;49.398;2022-10-17T13:52:47;7.61;77.16
67186;HTU21D;54116;53.518;49.398;2022-10-17T13:55:18;7.56;77.78
67186;HTU21D;54116;53.518;49.398;2022-10-17T13:57:52;7.49;78.00
67186;HTU21D;54116;53.518;49.398;2022-10-17T14:00:23;7.41;78.01
67186;HTU21D;54116;53.518;49.398;2022-10-17T14:02:56;7.40;78.52
67186;HTU21D;54116;53.518;49.398;2022-10-17T14:05:28;7.35;78.85
67186;HTU21D;54116;53.518;49.398;2022-10-17T14:08:02;7.31;79.13
67186;HTU21D;54116;53.518;49.398;2022-10-17T14:10:36;7.32;79.48
67186;HTU21D;54116;53.518;49.398;2022-10-17T14:13:21;7.24;79.78
67186;HTU21D;54116;53.518;49.398;2022-10-17T14:15:55;7.15;80.26
67186;HTU21D;54116;53.518;49.398;2022-10-17T14:18:30;7.09;81.06
67186;HTU21D;54116;53.518;49.398;2022-10-17T14:21:04;7.05;81.07
67186;HTU21D;54116;53.518;49.398;2022-10-17T14:23:38;7.03;81.71
67186;HTU21D;54116;53.518;49.398;2022-10-17T14:26:14;7.00;81.81
67186;HTU21D;54116;53.518;49.398;2022-10-17T14:29:05;6.99;82.27
67186;HTU21D;54116;53.518;49.398;2022-10-17T14:31:39;6.91;82.01
67186;HTU21D;54116;53.518;49.398;2022-10-17T14:34:22;6.79;82.32
67186;HTU21D;54116;53.518;49.398;2022-10-17T14:36:56;6.73;83.81
67186;HTU21D;54116;53.518;49.398;2022-10-17T14:39:28;6.72;83.39
67186;HTU21D;54116;53.518;49.398;2022-10-17T14:42:00;6.71;84.20
67186;HTU21D;54116;53.518;49.398;2022-10-17T14:44:33;6.74;83.95
67186;HTU21D;54116;53.518;49.398;2022-10-17T14:47:06;6.78;84.01
67186;HTU21D;54116;53.518;49.398;2022-10-17T14:49:49;6.82;84.13
67186;HTU21D;54116;53.518;49.398;2022-10-17T14:52:25;6.95;83.85
67186;HTU21D;54116;53.518;49.398;2022-10-17T14:55:10;6.95;83.72
67186;HTU21D;54116;53.518;49.398;2022-10-17T14:57:45;6.88;84.27
67186;HTU21D;54116;53.518;49.398;2022-10-17T15:00:19;6.81;84.79
67186;HTU21D;54116;53.518;49.398;2022-10-17T15:02:52;6.78;84.65
67186;HTU21D;54116;53.518;49.398;2022-10-17T15:05:27;6.79;85.04
67186;HTU21D;54116;53.518;49.398;2022-10-17T15:07:59;6.87;84.63
67186;HTU21D;54116;53.518;49.398;2022-10-17T15:10:33;6.81;84.63
67186;HTU21D;54116;53.518;49.398;2022-10-17T15:13:07;6.78;84.85
67186;HTU21D;54116;53.518;49.398;2022-10-17T15:15:39;6.85;84.22
67186;HTU21D;54116;53.518;49.398;2022-10-17T15:18:13;6.90;84.22
67186;HTU21D;54116;53.518;49.398;2022-10-17T15:20:45;7.01;82.55
67186;HTU21D;54116;53.518;49.398;2022-10-17T15:23:19;7.10;81.99
67186;HTU21D;54116;53.518;49.398;2022-10-17T15:25:52;7.22;81.88
67186;HTU21D;54116;53.518;49.398;2022-10-17T15:28:24;7.18;81.43
67186;HTU21D;54116;53.518;49.398;2022-10-17T15:30:55;7.16;81.53
67186;HTU21D;54116;53.518;49.398;2022-10-17T15:33:27;7.24;80.81
67186;HTU21D;54116;53.518;49.398;2022-10-17T15:36:00;7.32;80.79
67186;HTU21D;54116;53.518;49.398;2022-10-17T15:38:33;7.30;81.69
67186;HTU21D;54116;53.518;49.398;2022-10-17T15:41:04;7.20;82.07
67186;HTU21D;54116;53.518;49.398;2022-10-17T15:43:37;7.26;82.09
67186;HTU21D;54116;53.518;49.398;2022-10-17T15:46:15;7.18;82.38
67186;HTU21D;54116;53.518;49.398;2022-10-17T15:48:47;7.17;82.62
67186;HTU21D;54116;53.518;49.398;2022-10-17T15:51:20;7.13;82.76
67186;HTU21D;54116;53.518;49.398;2022-10-17T15:53:51;7.14;82.89
67186;HTU21D;54116;53.518;49.398;2022-10-17T15:56:29;7.15;83.10
67186;HTU21D;54116;53.518;49.398;2022-10-17T15:59:17;7.14;83.46
67186;HTU21D;54116;53.518;49.398;2022-10-17T16:01:49;7.14;83.88
67186;HTU21D;54116;53.518;49.398;2022-10-17T16:04:21;7.08;84.36
67186;HTU21D;54116;53.518;49.398;2022-10-17T16:06:54;7.11;84.64
67186;HTU21D;54116;53.518;49.398;2022-10-17T16:09:26;7.12;84.59
67186;HTU21D;54116;53.518;49.398;2022-10-17T16:12:00;7.15;84.85
67186;HTU21D;54116;53.518;49.398;2022-10-17T16:14:33;7.15;85.30
67186;HTU21D;54116;53.518;49.398;2022-10-17T16:17:05;7.12;85.67
67186;HTU21D;54116;53.518;49.398;2022-10-17T16:19:37;7.01;86.40
67186;HTU21D;54116;53.518;49.398;2022-10-17T16:22:29;6.98;86.94
67186;HTU21D;54116;53.518;49.398;2022-10-17T16:27:53;6.98;87.38
67186;HTU21D;54116;53.518;49.398;2022-10-17T16:30:26;6.95;87.58
67186;HTU21D;54116;53.518;49.398;2022-10-17T16:32:58;6.91;87.44
67186;HTU21D;54116;53.518;49.398;2022-10-17T16:35:31;6.87;88.91
67186;HTU21D;54116;53.518;49.398;2022-10-17T16:38:06;6.88;88.86
67186;HTU21D;54116;53.518;49.398;2022-10-17T16:40:38;6.88;89.60
67186;HTU21D;54116;53.518;49.398;2022-10-17T16:43:12;6.89;90.37
67186;HTU21D;54116;53.518;49.398;2022-10-17T16:45:43;6.90;90.34
67186;HTU21D;54116;53.518;49.398;2022-10-17T16:48:25;6.95;91.18
67186;HTU21D;54116;53.518;49.398;2022-10-17T16:50:56;6.96;90.84
67186;HTU21D;54116;53.518;49.398;2022-10-17T16:53:28;6.95;90.46
67186;HTU21D;54116;53.518;49.398;2022-10-17T16:56:01;7.01;90.45
67186;HTU21D;54116;53.518;49.398;2022-10-17T16:58:33;7.15;89.28
67186;HTU21D;54116;53.518;49.398;2022-10-17T17:01:10;7.14;89.26
67186;HTU21D;54116;53.518;49.398;2022-10-17T17:03:45;7.11;89.18
67186;HTU21D;54116;53.518;49.398;2022-10-17T17:06:25;7.03;89.49
67186;HTU21D;54116;53.518;49.398;2022-10-17T17:09:00;7.03;89.82
67186;HTU21D;54116;53.518;49.398;2022-10-17T17:11:31;6.97;90.21
67186;HTU21D;54116;53.518;49.398;2022-10-17T17:14:05;7.04;90.26
67186;HTU21D;54116;53.518;49.398;2022-10-17T17:16:41;6.96;90.63
67186;HTU21D;54116;53.518;49.398;2022-10-17T17:19:15;6.94;90.44
67186;HTU21D;54116;53.518;49.398;2022-10-17T17:21:48;6.88;91.11
67186;HTU21D;54116;53.518;49.398;2022-10-17T17:24:23;6.94;91.02
67186;HTU21D;54116;53.518;49.398;2022-10-17T17:26:59;6.88;91.77
67186;HTU21D;54116;53.518;49.398;2022-10-17T17:29:33;6.91;91.85
67186;HTU21D;54116;53.518;49.398;2022-10-17T17:32:05;6.84;92.30
67186;HTU21D;54116;53.518;49.398;2022-10-17T17:34:40;6.85;92.65
67186;HTU21D;54116;53.518;49.398;2022-10-17T17:37:13;6.85;92.95
67186;HTU21D;54116;53.518;49.398;2022-10-17T17:39:45;6.89;93.05
67186;HTU21D;54116;53.518;49.398;2022-10-17T17:42:17;6.86;93.61
67186;HTU21D;54116;53.518;49.398;2022-10-17T17:44:49;6.84;93.85
67186;HTU21D;54116;53.518;49.398;2022-10-17T17:47:27;6.83;94.00
67186;HTU21D;54116;53.518;49.398;2022-10-17T17:50:03;6.84;93.89
67186;HTU21D;54116;53.518;49.398;2022-10-17T17:52:35;6.86;93.88
67186;HTU21D;54116;53.518;49.398;2022-10-17T17:55:12;6.85;94.11
67186;HTU21D;54116;53.518;49.398;2022-10-17T17:57:43;6.93;93.76